sensor_id;sensor_type;location;lat;lon;timestamp;P1;durP1;ratioP1;P2;durP2;ratioP2
59520;SDS011;54898;40.918;14.476;2022-09-06T13:18:32;10.80;;;5.30;;
59520;SDS011;54898;40.918;14.476;2022-09-06T13:21:01;11.02;;;5.20;;
59520;SDS011;54898;40.918;14.476;2022-09-06T13:23:28;7.28;;;4.70;;
59520;SDS011;54898;40.918;14.476;2022-09-06T13:25:55;9.77;;;4.72;;
59520;SDS011;54898;40.918;14.476;2022-09-06T13:28:25;11.38;;;4.57;;
59520;SDS011;54898;40.918;14.476;2022-09-06T13:31:01;12.05;;;5.38;;
59520;SDS011;54898;40.918;14.476;2022-09-06T13:33:28;6.30;;;3.80;;
59520;SDS011;54898;40.918;14.476;2022-09-06T13:36:05;10.23;;;4.32;;
59520;SDS011;54898;40.918;14.476;2022-09-06T13:38:32;12.32;;;4.22;;
59520;SDS011;54898;40.918;14.476;2022-09-06T13:40:59;11.95;;;4.60;;
59520;SDS011;54898;40.918;14.476;2022-09-06T13:43:26;10.15;;;4.25;;
59520;SDS011;54898;40.918;14.476;2022-09-06T13:46:02;10.60;;;4.05;;
59520;SDS011;54898;40.918;14.476;2022-09-06T13:48:29;10.95;;;4.93;;
59520;SDS011;54898;40.918;14.476;2022-09-06T13:50:55;8.15;;;4.63;;
59520;SDS011;54898;40.918;14.476;2022-09-06T13:53:23;15.07;;;4.05;;
59520;SDS011;54898;40.918;14.476;2022-09-06T13:55:50;9.93;;;4.63;;
59520;SDS011;54898;40.918;14.476;2022-09-06T13:58:17;7.50;;;4.05;;
59520;SDS011;54898;40.918;14.476;2022-09-06T14:00:44;9.55;;;4.18;;
59520;SDS011;54898;40.918;14.476;2022-09-06T14:03:12;6.13;;;3.53;;
59520;SDS011;54898;40.918;14.476;2022-09-06T14:05:39;7.83;;;4.07;;
59520;SDS011;54898;40.918;14.476;2022-09-06T14:08:06;9.85;;;4.82;;
59520;SDS011;54898;40.918;14.476;2022-09-06T14:10:34;10.23;;;4.80;;
59520;SDS011;54898;40.918;14.476;2022-09-06T14:13:01;8.73;;;4.20;;
59520;SDS011;54898;40.918;14.476;2022-09-06T14:15:27;10.05;;;4.15;;
59520;SDS011;54898;40.918;14.476;2022-09-06T14:17:53;11.18;;;4.35;;
59520;SDS011;54898;40.918;14.476;2022-09-06T14:20:20;8.20;;;3.83;;
59520;SDS011;54898;40.918;14.476;2022-09-06T14:22:46;9.20;;;4.15;;
59520;SDS011;54898;40.918;14.476;2022-09-06T14:25:13;14.65;;;4.30;;
59520;SDS011;54898;40.918;14.476;2022-09-06T14:27:40;7.82;;;3.60;;
59520;SDS011;54898;40.918;14.476;2022-09-06T14:30:07;8.98;;;4.13;;
59520;SDS011;54898;40.918;14.476;2022-09-06T14:32:34;8.93;;;3.85;;
59520;SDS011;54898;40.918;14.476;2022-09-06T14:35:00;11.57;;;3.60;;
59520;SDS011;54898;40.918;14.476;2022-09-06T14:37:27;6.50;;;3.00;;
59520;SDS011;54898;40.918;14.476;2022-09-06T14:39:53;6.45;;;3.78;;
59520;SDS011;54898;40.918;14.476;2022-09-06T14:42:20;5.75;;;3.13;;
59520;SDS011;54898;40.918;14.476;2022-09-06T14:44:50;8.07;;;3.15;;
59520;SDS011;54898;40.918;14.476;2022-09-06T14:47:17;10.35;;;3.60;;
59520;SDS011;54898;40.918;14.476;2022-09-06T14:49:43;11.30;;;3.50;;
59520;SDS011;54898;40.918;14.476;2022-09-06T14:52:09;11.15;;;3.45;;
59520;SDS011;54898;40.918;14.476;2022-09-06T14:54:37;8.68;;;3.10;;
59520;SDS011;54898;40.918;14.476;2022-09-06T14:57:03;7.70;;;3.50;;
59520;SDS011;54898;40.918;14.476;2022-09-06T14:59:30;9.35;;;3.10;;
59520;SDS011;54898;40.918;14.476;2022-09-06T15:01:57;6.65;;;3.53;;
59520;SDS011;54898;40.918;14.476;2022-09-06T15:04:24;7.88;;;3.47;;
59520;SDS011;54898;40.918;14.476;2022-09-06T15:06:51;7.30;;;3.25;;
59520;SDS011;54898;40.918;14.476;2022-09-06T15:09:17;6.47;;;3.13;;
59520;SDS011;54898;40.918;14.476;2022-09-06T15:11:44;4.13;;;2.80;;
59520;SDS011;54898;40.918;14.476;2022-09-06T15:14:11;6.70;;;2.72;;
59520;SDS011;54898;40.918;14.476;2022-09-06T15:16:38;9.32;;;3.00;;
59520;SDS011;54898;40.918;14.476;2022-09-06T15:19:06;7.07;;;2.45;;
59520;SDS011;54898;40.918;14.476;2022-09-06T15:21:33;6.97;;;2.47;;
59520;SDS011;54898;40.918;14.476;2022-09-06T15:24:00;8.20;;;2.50;;
59520;SDS011;54898;40.918;14.476;2022-09-06T15:26:27;14.95;;;2.92;;
59520;SDS011;54898;40.918;14.476;2022-09-06T15:28:54;4.13;;;2.53;;
59520;SDS011;54898;40.918;14.476;2022-09-06T15:31:20;8.18;;;2.60;;
59520;SDS011;54898;40.918;14.476;2022-09-06T15:33:47;7.43;;;2.90;;
59520;SDS011;54898;40.918;14.476;2022-09-06T15:36:16;12.75;;;2.92;;
59520;SDS011;54898;40.918;14.476;2022-09-06T15:38:43;5.97;;;2.30;;
59520;SDS011;54898;40.918;14.476;2022-09-06T15:41:10;8.98;;;2.95;;
59520;SDS011;54898;40.918;14.476;2022-09-06T15:43:37;5.78;;;2.83;;
59520;SDS011;54898;40.918;14.476;2022-09-06T15:46:06;9.55;;;3.17;;
59520;SDS011;54898;40.918;14.476;2022-09-06T15:48:38;8.38;;;2.80;;
59520;SDS011;54898;40.918;14.476;2022-09-06T15:51:04;8.95;;;2.67;;
59520;SDS011;54898;40.918;14.476;2022-09-06T15:53:32;8.43;;;3.10;;
59520;SDS011;54898;40.918;14.476;2022-09-06T15:55:58;11.88;;;4.05;;
59520;SDS011;54898;40.918;14.476;2022-09-06T15:58:26;6.15;;;2.95;;
59520;SDS011;54898;40.918;14.476;2022-09-06T16:03:40;6.20;;;3.28;;
59520;SDS011;54898;40.918;14.476;2022-09-06T16:06:08;8.60;;;2.75;;
59520;SDS011;54898;40.918;14.476;2022-09-06T16:08:35;6.72;;;2.90;;
59520;SDS011;54898;40.918;14.476;2022-09-06T16:11:04;9.18;;;3.05;;
59520;SDS011;54898;40.918;14.476;2022-09-06T16:13:32;7.22;;;3.75;;
59520;SDS011;54898;40.918;14.476;2022-09-06T16:15:59;10.43;;;4.68;;
59520;SDS011;54898;40.918;14.476;2022-09-06T16:18:25;9.18;;;4.70;;
59520;SDS011;54898;40.918;14.476;2022-09-06T16:20:52;11.82;;;4.80;;
59520;SDS011;54898;40.918;14.476;2022-09-06T16:23:19;11.23;;;4.40;;
59520;SDS011;54898;40.918;14.476;2022-09-06T16:25:52;11.85;;;4.05;;
59520;SDS011;54898;40.918;14.476;2022-09-06T16:28:18;6.80;;;3.10;;
59520;SDS011;54898;40.918;14.476;2022-09-06T16:30:44;9.07;;;3.90;;
59520;SDS011;54898;40.918;14.476;2022-09-06T16:33:11;7.65;;;3.35;;
59520;SDS011;54898;40.918;14.476;2022-09-06T16:35:38;6.60;;;3.13;;
59520;SDS011;54898;40.918;14.476;2022-09-06T16:38:04;11.82;;;3.90;;
59520;SDS011;54898;40.918;14.476;2022-09-06T16:40:30;7.97;;;3.60;;
59520;SDS011;54898;40.918;14.476;2022-09-06T16:42:58;16.85;;;3.30;;
59520;SDS011;54898;40.918;14.476;2022-09-06T16:45:24;11.02;;;3.97;;
59520;SDS011;54898;40.918;14.476;2022-09-06T16:47:51;12.48;;;4.50;;
59520;SDS011;54898;40.918;14.476;2022-09-06T16:50:17;15.82;;;3.83;;
59520;SDS011;54898;40.918;14.476;2022-09-06T16:52:43;11.15;;;3.80;;
59520;SDS011;54898;40.918;14.476;2022-09-06T16:55:09;8.20;;;3.70;;
59520;SDS011;54898;40.918;14.476;2022-09-06T16:57:37;15.95;;;3.85;;
59520;SDS011;54898;40.918;14.476;2022-09-06T17:00:05;8.45;;;3.47;;
59520;SDS011;54898;40.918;14.476;2022-09-06T17:02:32;12.68;;;4.80;;
59520;SDS011;54898;40.918;14.476;2022-09-06T17:04:58;12.68;;;4.65;;
59520;SDS011;54898;40.918;14.476;2022-09-06T17:07:24;9.35;;;4.20;;
59520;SDS011;54898;40.918;14.476;2022-09-06T17:09:50;10.98;;;4.18;;
59520;SDS011;54898;40.918;14.476;2022-09-06T17:45:16;13.48;;;6.65;;
59520;SDS011;54898;40.918;14.476;2022-09-06T17:47:43;10.80;;;5.40;;
59520;SDS011;54898;40.918;14.476;2022-09-06T17:50:09;8.80;;;4.85;;
59520;SDS011;54898;40.918;14.476;2022-09-06T17:52:35;15.10;;;4.63;;
59520;SDS011;54898;40.918;14.476;2022-09-06T17:55:02;15.95;;;3.83;;
59520;SDS011;54898;40.918;14.476;2022-09-06T17:57:28;11.50;;;5.13;;
59520;SDS011;54898;40.918;14.476;2022-09-06T17:59:54;16.42;;;7.00;;
59520;SDS011;54898;40.918;14.476;2022-09-06T18:02:22;14.35;;;6.78;;
59520;SDS011;54898;40.918;14.476;2022-09-06T18:04:48;12.23;;;6.93;;
59520;SDS011;54898;40.918;14.476;2022-09-06T18:07:15;15.73;;;7.43;;
59520;SDS011;54898;40.918;14.476;2022-09-06T18:09:42;9.30;;;5.50;;
59520;SDS011;54898;40.918;14.476;2022-09-06T18:12:08;7.78;;;3.33;;
59520;SDS011;54898;40.918;14.476;2022-09-06T18:14:34;14.82;;;5.38;;
59520;SDS011;54898;40.918;14.476;2022-09-06T18:17:01;9.30;;;4.55;;
59520;SDS011;54898;40.918;14.476;2022-09-06T18:19:29;10.38;;;3.90;;
59520;SDS011;54898;40.918;14.476;2022-09-06T18:21:56;37.53;;;5.30;;
59520;SDS011;54898;40.918;14.476;2022-09-06T18:24:22;13.75;;;3.65;;
59520;SDS011;54898;40.918;14.476;2022-09-06T18:26:48;10.95;;;3.63;;
59520;SDS011;54898;40.918;14.476;2022-09-06T18:29:15;11.57;;;3.70;;
59520;SDS011;54898;40.918;14.476;2022-09-06T18:31:43;12.30;;;4.10;;
59520;SDS011;54898;40.918;14.476;2022-09-06T18:34:09;12.60;;;3.65;;
59520;SDS011;54898;40.918;14.476;2022-09-06T18:36:37;7.85;;;3.03;;
59520;SDS011;54898;40.918;14.476;2022-09-06T18:39:04;12.32;;;3.97;;
59520;SDS011;54898;40.918;14.476;2022-09-06T18:41:30;9.55;;;4.20;;
59520;SDS011;54898;40.918;14.476;2022-09-06T18:44:15;9.05;;;4.85;;
59520;SDS011;54898;40.918;14.476;2022-09-06T18:46:42;12.98;;;8.13;;
59520;SDS011;54898;40.918;14.476;2022-09-06T18:49:08;26.15;;;10.90;;
59520;SDS011;54898;40.918;14.476;2022-09-06T18:51:39;13.80;;;8.93;;
59520;SDS011;54898;40.918;14.476;2022-09-06T18:54:06;22.38;;;9.68;;
59520;SDS011;54898;40.918;14.476;2022-09-06T18:56:32;17.75;;;11.82;;
59520;SDS011;54898;40.918;14.476;2022-09-06T18:58:58;16.20;;;8.55;;
59520;SDS011;54898;40.918;14.476;2022-09-06T19:01:26;15.02;;;8.23;;
59520;SDS011;54898;40.918;14.476;2022-09-06T19:03:54;24.30;;;9.98;;
59520;SDS011;54898;40.918;14.476;2022-09-06T19:06:20;18.75;;;10.20;;
59520;SDS011;54898;40.918;14.476;2022-09-06T19:08:48;24.92;;;9.63;;
59520;SDS011;54898;40.918;14.476;2022-09-06T19:11:17;18.20;;;9.88;;
59520;SDS011;54898;40.918;14.476;2022-09-06T19:13:45;16.75;;;9.63;;
59520;SDS011;54898;40.918;14.476;2022-09-06T19:16:12;19.02;;;9.95;;
59520;SDS011;54898;40.918;14.476;2022-09-06T19:18:38;18.52;;;10.23;;
59520;SDS011;54898;40.918;14.476;2022-09-06T19:21:05;18.67;;;9.25;;
59520;SDS011;54898;40.918;14.476;2022-09-06T19:23:33;20.88;;;8.60;;
59520;SDS011;54898;40.918;14.476;2022-09-06T19:26:03;19.60;;;9.05;;
59520;SDS011;54898;40.918;14.476;2022-09-06T19:28:29;15.63;;;9.50;;
59520;SDS011;54898;40.918;14.476;2022-09-06T19:30:56;16.70;;;8.90;;
59520;SDS011;54898;40.918;14.476;2022-09-06T19:33:22;17.10;;;9.60;;
59520;SDS011;54898;40.918;14.476;2022-09-06T19:35:49;25.65;;;9.27;;
59520;SDS011;54898;40.918;14.476;2022-09-06T19:38:17;20.63;;;8.95;;
59520;SDS011;54898;40.918;14.476;2022-09-06T19:40:43;27.08;;;10.18;;
59520;SDS011;54898;40.918;14.476;2022-09-06T19:43:11;19.98;;;8.77;;
59520;SDS011;54898;40.918;14.476;2022-09-06T19:45:38;13.75;;;9.00;;
59520;SDS011;54898;40.918;14.476;2022-09-06T19:48:04;21.88;;;10.55;;
59520;SDS011;54898;40.918;14.476;2022-09-06T19:50:31;21.20;;;10.65;;
59520;SDS011;54898;40.918;14.476;2022-09-06T19:52:57;15.13;;;9.43;;
59520;SDS011;54898;40.918;14.476;2022-09-06T19:55:23;17.30;;;9.85;;
59520;SDS011;54898;40.918;14.476;2022-09-06T19:57:49;19.20;;;10.40;;
59520;SDS011;54898;40.918;14.476;2022-09-06T20:00:17;21.58;;;10.23;;
59520;SDS011;54898;40.918;14.476;2022-09-06T20:02:43;23.02;;;10.85;;
59520;SDS011;54898;40.918;14.476;2022-09-06T20:05:09;23.60;;;11.43;;
59520;SDS011;54898;40.918;14.476;2022-09-06T20:07:36;20.75;;;10.68;;
59520;SDS011;54898;40.918;14.476;2022-09-06T20:10:02;24.58;;;11.10;;
59520;SDS011;54898;40.918;14.476;2022-09-06T20:12:28;18.38;;;10.23;;
59520;SDS011;54898;40.918;14.476;2022-09-06T20:14:57;19.67;;;11.32;;
59520;SDS011;54898;40.918;14.476;2022-09-06T20:17:24;21.98;;;11.98;;
59520;SDS011;54898;40.918;14.476;2022-09-06T20:19:51;22.05;;;12.25;;
59520;SDS011;54898;40.918;14.476;2022-09-06T20:22:18;27.33;;;16.88;;
59520;SDS011;54898;40.918;14.476;2022-09-06T20:24:44;28.67;;;17.80;;
59520;SDS011;54898;40.918;14.476;2022-09-06T20:27:11;29.17;;;19.13;;
59520;SDS011;54898;40.918;14.476;2022-09-06T20:29:37;29.13;;;19.25;;
59520;SDS011;54898;40.918;14.476;2022-09-06T20:32:03;31.38;;;18.73;;
59520;SDS011;54898;40.918;14.476;2022-09-06T20:34:31;29.52;;;18.15;;
59520;SDS011;54898;40.918;14.476;2022-09-06T20:36:58;35.85;;;20.20;;
59520;SDS011;54898;40.918;14.476;2022-09-06T20:39:24;34.22;;;19.98;;
59520;SDS011;54898;40.918;14.476;2022-09-06T20:41:50;34.45;;;24.05;;
59520;SDS011;54898;40.918;14.476;2022-09-06T20:44:17;39.25;;;22.40;;
59520;SDS011;54898;40.918;14.476;2022-09-06T20:46:44;31.85;;;21.42;;
59520;SDS011;54898;40.918;14.476;2022-09-06T20:49:10;38.63;;;21.85;;
59520;SDS011;54898;40.918;14.476;2022-09-06T20:51:38;36.03;;;23.00;;
59520;SDS011;54898;40.918;14.476;2022-09-06T20:54:08;32.92;;;19.77;;
59520;SDS011;54898;40.918;14.476;2022-09-06T20:56:35;36.42;;;20.30;;
59520;SDS011;54898;40.918;14.476;2022-09-06T20:59:03;32.45;;;21.25;;
59520;SDS011;54898;40.918;14.476;2022-09-06T21:01:30;33.40;;;20.45;;
59520;SDS011;54898;40.918;14.476;2022-09-06T21:03:57;28.20;;;17.30;;
59520;SDS011;54898;40.918;14.476;2022-09-06T21:06:25;27.17;;;16.48;;
59520;SDS011;54898;40.918;14.476;2022-09-06T21:08:53;25.92;;;16.45;;
59520;SDS011;54898;40.918;14.476;2022-09-06T21:11:19;21.92;;;14.05;;
59520;SDS011;54898;40.918;14.476;2022-09-06T21:13:46;27.38;;;15.55;;
59520;SDS011;54898;40.918;14.476;2022-09-06T21:16:13;27.63;;;15.05;;
59520;SDS011;54898;40.918;14.476;2022-09-06T21:18:39;24.27;;;14.35;;
59520;SDS011;54898;40.918;14.476;2022-09-06T21:21:06;28.23;;;15.10;;
59520;SDS011;54898;40.918;14.476;2022-09-06T21:23:33;28.25;;;17.17;;
59520;SDS011;54898;40.918;14.476;2022-09-06T21:26:01;21.48;;;14.88;;
59520;SDS011;54898;40.918;14.476;2022-09-06T21:28:28;21.77;;;13.13;;
59520;SDS011;54898;40.918;14.476;2022-09-06T21:30:58;19.50;;;12.15;;
59520;SDS011;54898;40.918;14.476;2022-09-06T21:33:26;23.73;;;12.82;;
59520;SDS011;54898;40.918;14.476;2022-09-06T21:35:52;19.25;;;12.25;;
59520;SDS011;54898;40.918;14.476;2022-09-06T21:38:18;24.83;;;12.82;;
59520;SDS011;54898;40.918;14.476;2022-09-06T21:40:44;17.33;;;11.18;;
59520;SDS011;54898;40.918;14.476;2022-09-06T21:43:13;22.10;;;11.93;;
59520;SDS011;54898;40.918;14.476;2022-09-06T21:45:39;22.95;;;13.85;;
59520;SDS011;54898;40.918;14.476;2022-09-06T21:48:05;17.42;;;11.65;;
59520;SDS011;54898;40.918;14.476;2022-09-06T21:50:32;18.75;;;11.32;;
59520;SDS011;54898;40.918;14.476;2022-09-06T21:52:58;20.45;;;13.27;;
59520;SDS011;54898;40.918;14.476;2022-09-06T21:55:24;21.10;;;13.88;;
59520;SDS011;54898;40.918;14.476;2022-09-06T21:57:50;18.75;;;12.27;;
59520;SDS011;54898;40.918;14.476;2022-09-06T22:00:18;14.38;;;9.93;;
59520;SDS011;54898;40.918;14.476;2022-09-06T22:02:44;16.85;;;9.40;;
59520;SDS011;54898;40.918;14.476;2022-09-06T22:05:11;15.23;;;9.20;;
59520;SDS011;54898;40.918;14.476;2022-09-06T22:07:37;14.27;;;9.82;;
59520;SDS011;54898;40.918;14.476;2022-09-06T22:10:03;19.85;;;9.98;;
59520;SDS011;54898;40.918;14.476;2022-09-06T22:12:30;15.00;;;10.20;;
59520;SDS011;54898;40.918;14.476;2022-09-06T22:14:56;14.77;;;9.70;;
59520;SDS011;54898;40.918;14.476;2022-09-06T22:17:24;19.08;;;9.32;;
59520;SDS011;54898;40.918;14.476;2022-09-06T22:19:50;16.65;;;9.75;;
59520;SDS011;54898;40.918;14.476;2022-09-06T22:22:16;17.67;;;9.82;;
59520;SDS011;54898;40.918;14.476;2022-09-06T22:24:42;14.48;;;9.25;;
59520;SDS011;54898;40.918;14.476;2022-09-06T22:27:09;19.55;;;10.45;;
59520;SDS011;54898;40.918;14.476;2022-09-06T22:29:35;14.32;;;9.15;;
59520;SDS011;54898;40.918;14.476;2022-09-06T22:32:01;14.95;;;8.60;;
59520;SDS011;54898;40.918;14.476;2022-09-06T22:34:29;16.40;;;8.73;;
59520;SDS011;54898;40.918;14.476;2022-09-06T22:36:55;10.07;;;8.10;;
59520;SDS011;54898;40.918;14.476;2022-09-06T22:39:21;13.23;;;8.13;;
59520;SDS011;54898;40.918;14.476;2022-09-06T22:41:48;12.13;;;8.07;;
59520;SDS011;54898;40.918;14.476;2022-09-06T22:44:14;12.73;;;7.95;;
59520;SDS011;54898;40.918;14.476;2022-09-06T22:46:40;13.95;;;7.32;;
59520;SDS011;54898;40.918;14.476;2022-09-06T22:49:07;16.00;;;7.82;;
59520;SDS011;54898;40.918;14.476;2022-09-06T22:51:35;12.13;;;7.70;;
59520;SDS011;54898;40.918;14.476;2022-09-06T22:54:01;13.07;;;8.70;;
59520;SDS011;54898;40.918;14.476;2022-09-06T22:56:27;13.60;;;8.57;;
59520;SDS011;54898;40.918;14.476;2022-09-06T22:58:53;12.15;;;8.63;;
59520;SDS011;54898;40.918;14.476;2022-09-06T23:01:20;14.40;;;8.68;;
59520;SDS011;54898;40.918;14.476;2022-09-06T23:03:46;13.00;;;8.70;;
59520;SDS011;54898;40.918;14.476;2022-09-06T23:06:14;16.00;;;8.65;;
59520;SDS011;54898;40.918;14.476;2022-09-06T23:08:42;14.38;;;8.65;;
59520;SDS011;54898;40.918;14.476;2022-09-06T23:11:10;12.45;;;9.02;;
59520;SDS011;54898;40.918;14.476;2022-09-06T23:13:36;15.60;;;9.15;;
59520;SDS011;54898;40.918;14.476;2022-09-06T23:16:03;15.32;;;9.35;;
59520;SDS011;54898;40.918;14.476;2022-09-06T23:18:30;18.67;;;9.35;;
59520;SDS011;54898;40.918;14.476;2022-09-06T23:20:56;13.82;;;9.95;;
59520;SDS011;54898;40.918;14.476;2022-09-06T23:23:28;13.82;;;9.60;;
59520;SDS011;54898;40.918;14.476;2022-09-06T23:25:56;14.95;;;9.25;;
59520;SDS011;54898;40.918;14.476;2022-09-06T23:28:22;17.50;;;9.10;;
59520;SDS011;54898;40.918;14.476;2022-09-06T23:30:49;12.38;;;9.25;;
59520;SDS011;54898;40.918;14.476;2022-09-06T23:33:15;12.48;;;8.70;;
59520;SDS011;54898;40.918;14.476;2022-09-06T23:35:41;15.27;;;9.02;;
59520;SDS011;54898;40.918;14.476;2022-09-06T23:38:08;13.15;;;8.35;;
59520;SDS011;54898;40.918;14.476;2022-09-06T23:40:34;15.05;;;8.63;;
59520;SDS011;54898;40.918;14.476;2022-09-06T23:43:03;17.65;;;9.43;;
59520;SDS011;54898;40.918;14.476;2022-09-06T23:45:30;14.35;;;8.95;;
59520;SDS011;54898;40.918;14.476;2022-09-06T23:47:56;15.85;;;8.55;;
59520;SDS011;54898;40.918;14.476;2022-09-06T23:50:22;12.02;;;8.50;;
59520;SDS011;54898;40.918;14.476;2022-09-06T23:52:48;15.15;;;8.82;;
59520;SDS011;54898;40.918;14.476;2022-09-06T23:55:15;14.98;;;8.35;;
59520;SDS011;54898;40.918;14.476;2022-09-06T23:57:41;12.57;;;8.85;;
